Time;durP1;ratioP1;P1;durP2;ratioP2;P2;SDS_P1;SDS_P2;PMS_P1;PMS_P2;Temp;Humidity;BMP_temperature;BMP_pressure;BME280_temperature;BME280_humidity;BME280_pressure;Samples;Min_cycle;Max_cycle;Signal;HPM_P1;HPM_P2
2022/05/17 00:00:05;;;;;;;12.05;9.32;;;;;;;12.58;100.00;101269.97;683154;28;1614;-82
2022/05/17 00:00:35;;;;;;;11.13;9.90;;;;;;;12.54;100.00;101274.34;680377;29;1630;-82
2022/05/17 00:00:55;;;;;;;11.63;9.88;;;;;;;12.54;100.00;101273.50;679667;29;868;-81
2022/05/17 00:01:19;;;;;;;12.43;9.38;;;;;;;12.52;100.00;101246.41;680206;29;4321;-82
2022/05/17 00:01:42;;;;;;;10.85;9.40;;;;;;;12.54;100.00;101278.75;683783;28;1465;-82
2022/05/17 00:02:05;;;;;;;10.98;8.88;;;;;;;12.57;100.00;101278.72;681757;29;1405;-81
2022/05/17 00:02:29;;;;;;;11.35;8.93;;;;;;;12.58;100.00;101275.22;682626;28;1394;-82
2022/05/17 00:02:49;;;;;;;11.38;9.02;;;;;;;12.56;100.00;101266.50;677246;29;1367;-83
2022/05/17 00:03:11;;;;;;;12.13;9.23;;;;;;;12.59;100.00;101251.63;678598;29;1429;-82
2022/05/17 00:03:31;;;;;;;11.73;9.70;;;;;;;12.59;100.00;101280.47;677155;29;1382;-81
2022/05/17 00:03:55;;;;;;;11.85;9.65;;;;;;;12.60;100.00;101263.00;679023;29;1389;-82
2022/05/17 00:04:15;;;;;;;11.65;9.40;;;;;;;12.60;100.00;101256.00;679941;28;4330;-82
2022/05/17 00:04:36;;;;;;;11.60;9.57;;;;;;;12.63;100.00;101276.09;680903;28;2373;-82
2022/05/17 00:04:57;;;;;;;10.63;9.27;;;;;;;12.66;100.00;101252.47;680280;28;1209;-81
2022/05/17 00:05:18;;;;;;;10.38;9.05;;;;;;;12.66;100.00;101294.44;678450;29;1493;-82
2022/05/17 00:05:39;;;;;;;10.20;8.65;;;;;;;12.66;100.00;101275.22;677550;29;862;-82
2022/05/17 00:06:06;;;;;;;10.93;8.70;;;;;;;12.64;100.00;101255.97;681452;29;1540;-82
2022/05/17 00:06:30;;;;;;;10.45;8.70;;;;;;;12.67;100.00;101269.06;683995;28;1252;-82
2022/05/17 00:06:55;;;;;;;11.40;8.63;;;;;;;12.72;100.00;101262.06;686281;28;1259;-82
2022/05/17 00:07:16;;;;;;;12.43;8.98;;;;;;;12.68;100.00;101271.72;680698;28;4380;-82
2022/05/17 00:07:44;;;;;;;10.57;8.65;;;;;;;12.69;100.00;101262.09;679807;28;1224;-83
2022/05/17 00:08:07;;;;;;;10.27;8.90;;;;;;;12.70;100.00;101258.59;681990;28;1395;-83
2022/05/17 00:08:28;;;;;;;10.85;8.65;;;;;;;12.69;100.00;101254.22;679315;29;1413;-83
2022/05/17 00:08:54;;;;;;;11.38;8.88;;;;;;;12.70;100.00;101255.97;675353;29;1389;-83
2022/05/17 00:09:17;;;;;;;12.30;9.65;;;;;;;12.64;100.00;101254.25;678590;29;1762;-83
2022/05/17 00:09:39;;;;;;;11.30;9.48;;;;;;;12.64;100.00;101274.34;679898;29;1558;-83
2022/05/17 00:09:59;;;;;;;10.87;9.27;;;;;;;12.60;100.00;101291.84;681950;28;4346;-83
2022/05/17 00:10:21;;;;;;;11.50;9.40;;;;;;;12.60;100.00;101269.09;680648;29;1251;-81
2022/05/17 00:10:45;;;;;;;11.23;9.57;;;;;;;12.54;100.00;101250.75;679714;28;1476;-82
2022/05/17 00:11:11;;;;;;;12.15;9.82;;;;;;;12.50;100.00;101285.75;681653;28;1639;-81
2022/05/17 00:11:37;;;;;;;10.95;9.65;;;;;;;12.42;100.00;101272.66;681278;28;936;-81
2022/05/17 00:12:00;;;;;;;12.38;9.73;;;;;;;12.43;100.00;101273.53;682441;28;1253;-82
2022/05/17 00:12:20;;;;;;;12.88;9.57;;;;;;;12.46;100.00;101255.19;680630;29;1400;-82
2022/05/17 00:12:43;;;;;;;11.82;9.27;;;;;;;12.47;100.00;101270.00;681186;28;1786;-81
2022/05/17 00:13:06;;;;;;;9.80;8.80;;;;;;;12.51;100.00;101252.53;681177;28;4406;-81
2022/05/17 00:13:29;;;;;;;13.10;8.85;;;;;;;12.52;100.00;101267.41;680365;29;1391;-82
2022/05/17 00:13:52;;;;;;;12.97;8.70;;;;;;;12.52;100.00;101257.78;680816;28;1377;-81
2022/05/17 00:14:17;;;;;;;11.85;9.07;;;;;;;12.54;100.00;101263.88;681100;28;1701;-82
2022/05/17 00:14:37;;;;;;;9.90;8.90;;;;;;;12.60;100.00;101268.25;679129;29;1382;-81
2022/05/17 00:14:58;;;;;;;10.97;8.67;;;;;;;12.59;100.00;101261.25;677430;29;1151;-81
2022/05/17 00:15:19;;;;;;;10.93;8.77;;;;;;;12.59;100.00;101277.84;677382;29;1377;-82
2022/05/17 00:15:43;;;;;;;10.25;9.13;;;;;;;12.51;100.00;101250.78;674279;29;1964;-81
2022/05/17 00:16:04;;;;;;;11.52;10.10;;;;;;;12.43;100.00;101263.94;679156;29;4432;-81
2022/05/17 00:16:26;;;;;;;11.27;10.02;;;;;;;12.36;100.00;101249.06;681554;28;1641;-81
2022/05/17 00:16:46;;;;;;;12.13;9.80;;;;;;;12.34;100.00;101255.22;681136;28;1478;-82
2022/05/17 00:17:10;;;;;;;12.90;10.07;;;;;;;12.34;100.00;101252.59;682049;29;1216;-82
2022/05/17 00:17:31;;;;;;;11.95;9.90;;;;;;;12.36;100.00;101279.66;675641;29;1463;-81
2022/05/17 00:17:54;;;;;;;11.60;9.80;;;;;;;12.33;100.00;101259.56;676518;29;1015;-82
2022/05/17 00:18:18;;;;;;;11.73;10.10;;;;;;;12.33;100.00;101256.94;679964;29;1343;-82
2022/05/17 00:18:42;;;;;;;12.65;9.55;;;;;;;12.36;100.00;101269.19;678952;29;1094;-81
2022/05/17 00:19:03;;;;;;;11.40;9.55;;;;;;;12.39;100.00;101246.47;679505;28;4386;-81
2022/05/17 00:19:24;;;;;;;10.40;9.30;;;;;;;12.40;100.00;101276.16;680355;29;1639;-82
2022/05/17 00:19:45;;;;;;;11.27;9.48;;;;;;;12.39;100.00;101248.19;678860;29;1471;-82
2022/05/17 00:20:07;;;;;;;12.73;9.77;;;;;;;12.38;100.00;101254.34;681648;29;1136;-82
2022/05/17 00:20:28;;;;;;;12.15;9.68;;;;;;;12.38;100.00;101246.47;676351;29;1726;-81
2022/05/17 00:20:49;;;;;;;10.52;8.85;;;;;;;12.36;100.00;101264.78;678674;29;1801;-82
2022/05/17 00:21:10;;;;;;;10.57;9.27;;;;;;;12.34;100.00;101291.91;679805;29;1340;-82
2022/05/17 00:21:33;;;;;;;12.32;10.50;;;;;;;12.33;100.00;101274.44;679585;29;1823;-82
2022/05/17 00:21:57;;;;;;;12.38;9.95;;;;;;;12.29;100.00;101255.19;681608;28;1225;-82
2022/05/17 00:22:18;;;;;;;11.95;10.00;;;;;;;12.28;100.00;101292.81;679630;29;6198;-82
2022/05/17 00:22:39;;;;;;;13.43;10.05;;;;;;;12.26;100.00;101281.44;679904;28;1864;-82
2022/05/17 00:23:02;;;;;;;13.10;9.90;;;;;;;12.26;100.00;101250.84;680107;28;1231;-83
2022/05/17 00:23:22;;;;;;;12.07;10.05;;;;;;;12.27;100.00;101276.19;677404;29;1607;-82
2022/05/17 00:23:44;;;;;;;11.27;9.77;;;;;;;12.32;100.00;101254.31;676938;29;1429;-82
2022/05/17 00:24:09;;;;;;;13.18;9.30;;;;;;;12.34;100.00;101255.22;676492;29;1738;-82
2022/05/17 00:24:29;;;;;;;11.80;9.32;;;;;;;12.33;100.00;101266.56;675721;29;1702;-82
2022/05/17 00:24:50;;;;;;;11.90;9.35;;;;;;;12.34;100.00;101294.53;676356;29;1212;-82
2022/05/17 00:25:18;;;;;;;11.50;9.20;;;;;;;12.33;100.00;101284.91;676703;29;4279;-82
2022/05/17 00:25:43;;;;;;;11.25;9.07;;;;;;;12.32;100.00;101247.31;676650;29;1308;-82
2022/05/17 00:26:06;;;;;;;10.85;9.25;;;;;;;12.35;100.00;101285.78;678495;29;1471;-82
2022/05/17 00:26:27;;;;;;;11.60;9.48;;;;;;;12.35;100.00;101256.94;680594;29;1424;-82
2022/05/17 00:26:52;;;;;;;11.95;9.10;;;;;;;12.32;100.00;101264.81;685003;28;865;-82
2022/05/17 00:27:13;;;;;;;12.63;9.60;;;;;;;12.29;100.00;101291.03;682729;28;1248;-81
2022/05/17 00:27:38;;;;;;;11.40;9.82;;;;;;;12.27;100.00;101277.94;683942;28;991;-82
2022/05/17 00:28:04;;;;;;;13.30;9.80;;;;;;;12.24;100.00;101273.56;679523;28;4368;-82
2022/05/17 00:28:27;;;;;;;12.02;9.60;;;;;;;12.26;100.00;101247.34;678553;29;1538;-82
2022/05/17 00:28:48;;;;;;;12.30;9.43;;;;;;;12.24;100.00;101273.56;680771;28;1752;-83
2022/05/17 00:29:09;;;;;;;11.82;9.40;;;;;;;12.22;100.00;101261.34;682868;28;1732;-82
2022/05/17 00:29:30;;;;;;;11.90;9.40;;;;;;;12.20;100.00;101257.88;682124;28;1241;-82
2022/05/17 00:29:51;;;;;;;12.70;9.23;;;;;;;12.23;100.00;101284.94;682041;28;1240;-82
2022/05/17 00:30:15;;;;;;;12.75;9.70;;;;;;;12.22;100.00;101254.34;682489;29;1149;-82
2022/05/17 00:30:36;;;;;;;10.82;9.23;;;;;;;12.25;100.00;101254.34;682514;29;1698;-82
2022/05/17 00:30:58;;;;;;;11.00;8.93;;;;;;;12.24;100.00;101270.94;680788;29;1117;-82
2022/05/17 00:31:21;;;;;;;11.30;9.13;;;;;;;12.26;100.00;101268.31;679462;29;4972;-82
2022/05/17 00:31:45;;;;;;;10.98;9.23;;;;;;;12.24;100.00;101286.69;678232;29;1101;-82
2022/05/17 00:32:07;;;;;;;12.10;9.70;;;;;;;12.22;100.00;101282.31;684316;28;1309;-82
2022/05/17 00:32:30;;;;;;;12.38;9.68;;;;;;;12.18;100.00;101260.47;682688;29;1553;-81
2022/05/17 00:32:51;;;;;;;12.65;9.73;;;;;;;12.18;100.00;101270.09;681749;29;1295;-82
2022/05/17 00:33:18;;;;;;;14.70;10.57;;;;;;;12.13;100.00;101267.47;682147;29;2098;-82
2022/05/17 00:33:43;;;;;;;13.27;10.10;;;;;;;12.12;100.00;101255.25;681206;28;1086;-82
2022/05/17 00:34:04;;;;;;;12.23;9.82;;;;;;;12.03;100.00;101255.25;677979;29;4411;-82
2022/05/17 00:34:25;;;;;;;11.15;9.68;;;;;;;11.98;100.00;101294.56;680832;28;1503;-82
2022/05/17 00:34:46;;;;;;;11.98;10.00;;;;;;;11.94;100.00;101277.09;680897;29;1437;-82
2022/05/17 00:35:08;;;;;;;11.27;9.48;;;;;;;11.97;100.00;101250.03;680729;29;1550;-82
2022/05/17 00:35:28;;;;;;;11.65;9.90;;;;;;;11.97;100.00;101284.97;677452;29;1297;-82
2022/05/17 00:35:50;;;;;;;11.83;9.83;;;;;;;11.99;100.00;101258.75;678029;29;2010;-82
2022/05/17 00:36:11;;;;;;;11.48;9.65;;;;;;;12.02;100.00;101269.25;681309;28;1620;-82
2022/05/17 00:36:33;;;;;;;11.70;9.45;;;;;;;12.06;100.00;101250.88;678941;29;1138;-82
2022/05/17 00:36:54;;;;;;;11.07;9.70;;;;;;;12.08;100.00;101261.38;678998;29;1160;-82
2022/05/17 00:37:17;;;;;;;10.55;9.45;;;;;;;12.12;100.00;101276.22;678942;28;4296;-82
2022/05/17 00:37:38;;;;;;;11.15;9.70;;;;;;;12.13;100.00;101243.91;679174;29;1474;-82
2022/05/17 00:37:59;;;;;;;10.88;9.50;;;;;;;12.15;100.00;101280.59;677438;29;1286;-82
2022/05/17 00:38:20;;;;;;;11.20;9.02;;;;;;;12.15;100.00;101267.47;681161;29;801;-82
2022/05/17 00:38:41;;;;;;;12.40;9.20;;;;;;;12.15;100.00;101250.00;678140;29;1276;-82
2022/05/17 00:39:05;;;;;;;11.50;9.30;;;;;;;12.18;100.00;101265.69;675062;29;4743;-82
2022/05/17 00:39:26;;;;;;;11.75;9.20;;;;;;;12.18;100.00;101239.50;675201;29;1289;-82
2022/05/17 00:39:47;;;;;;;12.00;9.02;;;;;;;12.20;100.00;101265.72;675707;29;1535;-82
2022/05/17 00:40:10;;;;;;;12.13;9.27;;;;;;;12.16;100.00;101236.03;677814;28;4286;-82
2022/05/17 00:40:31;;;;;;;11.32;9.35;;;;;;;12.12;100.00;101265.72;684504;28;1311;-81
2022/05/17 00:40:57;;;;;;;11.68;9.68;;;;;;;12.05;100.00;101248.28;683557;28;1232;-82
2022/05/17 00:41:20;;;;;;;12.07;10.38;;;;;;;12.01;100.00;101283.22;683473;28;1666;-82
2022/05/17 00:41:47;;;;;;;11.20;9.95;;;;;;;11.98;100.00;101260.50;682430;28;1481;-82
2022/05/17 00:42:09;;;;;;;11.37;9.63;;;;;;;11.95;100.00;101236.03;680148;29;1361;-82
2022/05/17 00:42:34;;;;;;;11.82;9.70;;;;;;;11.95;100.00;101236.03;679308;29;1294;-82
2022/05/17 00:42:54;;;;;;;10.93;9.65;;;;;;;11.92;100.00;101258.75;680783;28;1410;-82
2022/05/17 00:44:58;;;;;;;11.68;10.02;;;;;;;11.88;100.00;101266.56;682717;28;1247;-82
2022/05/17 00:45:19;;;;;;;11.00;9.85;;;;;;;11.89;100.00;101256.13;683722;28;1594;-82
2022/05/17 00:45:47;;;;;;;11.30;9.80;;;;;;;11.98;100.00;101236.94;688128;28;1998;-82
2022/05/17 00:46:08;;;;;;;12.13;9.80;;;;;;;12.03;100.00;101256.16;683256;28;4272;-82
2022/05/17 00:47:08;;;;;;;12.02;9.50;;;;;;;12.10;100.00;101233.41;684415;28;1636;-84
2022/05/17 00:47:38;;;;;;;12.27;9.55;;;;;;;12.08;100.00;101233.41;682830;28;2164;-82
2022/05/17 00:48:06;;;;;;;11.45;10.02;;;;;;;12.07;100.00;101233.41;686595;28;1290;-82
2022/05/17 00:48:27;;;;;;;11.60;9.45;;;;;;;12.07;100.00;101246.50;683068;29;1227;-82
2022/05/17 00:48:52;;;;;;;11.85;9.23;;;;;;;12.07;100.00;101231.69;683260;28;1511;-82
2022/05/17 00:49:18;;;;;;;11.70;9.00;;;;;;;11.98;100.00;101241.31;680938;28;4327;-82
2022/05/17 00:49:42;;;;;;;13.10;9.90;;;;;;;11.87;100.00;101226.41;679957;29;1764;-82
2022/05/17 00:50:09;;;;;;;11.05;9.63;;;;;;;11.84;100.00;101236.06;680176;29;1440;-82
2022/05/17 00:50:37;;;;;;;12.77;10.48;;;;;;;11.87;100.00;101231.66;680218;29;1101;-82
2022/05/17 00:50:58;;;;;;;12.80;9.95;;;;;;;11.92;100.00;101237.78;685110;28;1360;-82
2022/05/17 00:51:29;;;;;;;11.98;9.65;;;;;;;11.93;100.00;101243.88;682321;29;1675;-82
2022/05/17 00:51:53;;;;;;;11.77;9.85;;;;;;;11.91;100.00;101246.50;681575;28;1165;-82
2022/05/17 00:52:19;;;;;;;12.18;10.05;;;;;;;11.87;100.00;101259.63;680435;28;4319;-82
2022/05/17 00:52:47;;;;;;;12.05;10.13;;;;;;;11.90;100.00;101226.41;678612;29;1300;-82
2022/05/17 00:53:12;;;;;;;11.13;9.48;;;;;;;11.91;100.00;101222.91;676238;29;2428;-82
2022/05/17 00:53:34;;;;;;;10.93;9.10;;;;;;;11.93;100.00;101226.44;676945;29;1464;-82
2022/05/17 00:54:06;;;;;;;11.80;9.80;;;;;;;11.95;100.00;101226.47;677715;29;1283;-82
2022/05/17 00:54:29;;;;;;;11.35;9.45;;;;;;;11.95;100.00;101249.16;674237;29;1397;-82
2022/05/17 00:54:52;;;;;;;12.10;9.60;;;;;;;11.95;100.00;101230.81;678469;29;1031;-82
2022/05/17 00:55:19;;;;;;;12.98;9.40;;;;;;;11.98;100.00;101230.81;677774;29;4345;-82
2022/05/17 00:55:46;;;;;;;10.60;8.77;;;;;;;11.98;100.00;101222.97;672540;29;1032;-82
2022/05/17 00:56:12;;;;;;;11.75;9.40;;;;;;;11.93;100.00;101239.53;676703;29;981;-82
2022/05/17 00:56:43;;;;;;;12.07;9.90;;;;;;;11.84;100.00;101234.28;681810;28;995;-82
2022/05/17 00:57:25;;;;;;;11.50;9.88;;;;;;;11.84;100.00;101229.06;679636;29;1546;-82
2022/05/17 00:58:21;;;;;;;11.10;9.38;;;;;;;11.86;100.00;101231.66;681490;28;1526;-82
2022/05/17 00:58:48;;;;;;;10.60;9.50;;;;;;;11.82;100.00;101267.47;678858;29;5965;-82
2022/05/17 00:59:10;;;;;;;10.85;9.75;;;;;;;11.79;100.00;101233.41;682116;29;2113;-82
2022/05/17 00:59:31;;;;;;;11.43;9.77;;;;;;;11.76;100.00;101246.50;680648;29;1451;-82
2022/05/17 00:59:55;;;;;;;13.38;10.00;;;;;;;11.72;100.00;101231.69;683219;28;1024;-82
2022/05/17 01:00:19;;;;;;;11.70;9.88;;;;;;;11.73;100.00;101257.00;680682;29;1313;-82
2022/05/17 01:00:48;;;;;;;12.40;10.07;;;;;;;11.69;100.00;101229.94;677908;29;1414;-82
2022/05/17 01:01:20;;;;;;;11.73;10.20;;;;;;;11.61;100.00;101250.00;678044;29;4327;-82
2022/05/17 01:01:41;;;;;;;13.98;10.38;;;;;;;11.58;100.00;101248.25;679569;29;1099;-82
2022/05/17 01:02:05;;;;;;;12.23;9.85;;;;;;;11.55;100.00;101232.53;679796;29;1735;-82
2022/05/17 01:02:35;;;;;;;12.32;9.77;;;;;;;11.58;100.00;101231.69;680366;29;1453;-82
2022/05/17 01:03:07;;;;;;;11.82;9.90;;;;;;;11.61;100.00;101251.75;676126;29;1355;-82
2022/05/17 01:03:42;;;;;;;12.95;9.63;;;;;;;11.65;100.00;101235.19;674413;29;1413;-82
2022/05/17 01:04:19;;;;;;;12.25;9.60;;;;;;;11.69;100.00;101234.31;677378;29;4430;-83
2022/05/17 01:04:40;;;;;;;12.73;9.48;;;;;;;11.71;100.00;101236.06;672585;29;1640;-82
2022/05/17 01:05:03;;;;;;;12.52;9.27;;;;;;;11.74;100.00;101254.38;676444;29;1268;-82
2022/05/17 01:05:25;;;;;;;9.95;8.88;;;;;;;11.75;100.00;101255.25;679838;29;858;-82
2022/05/17 01:05:53;;;;;;;9.98;8.93;;;;;;;11.79;100.00;101224.69;681228;28;1340;-82
2022/05/17 01:06:15;;;;;;;10.10;8.57;;;;;;;11.82;100.00;101227.31;680005;29;1279;-82
2022/05/17 01:07:00;;;;;;;10.35;8.95;;;;;;;11.84;100.00;101236.91;679955;29;1650;-82
2022/05/17 01:07:28;;;;;;;11.32;9.18;;;;;;;11.80;100.00;101243.03;679516;29;4800;-82
2022/05/17 01:07:55;;;;;;;11.32;9.20;;;;;;;11.79;100.00;101256.13;678759;29;1439;-82
2022/05/17 01:08:18;;;;;;;11.00;9.35;;;;;;;11.85;100.00;101230.81;675480;29;1422;-82
2022/05/17 01:08:38;;;;;;;11.93;9.43;;;;;;;11.85;100.00;101262.25;679358;29;917;-82
2022/05/17 01:08:59;;;;;;;10.90;9.50;;;;;;;11.83;100.00;101232.53;679785;29;1555;-82
2022/05/17 01:09:22;;;;;;;11.80;9.38;;;;;;;11.86;100.00;101236.91;679766;29;991;-82
2022/05/17 01:09:43;;;;;;;10.93;8.90;;;;;;;11.80;100.00;101263.97;679970;29;1406;-82
2022/05/17 01:10:04;;;;;;;9.93;8.77;;;;;;;11.79;100.00;101232.56;678403;28;4447;-82
2022/05/17 01:10:30;;;;;;;9.88;8.88;;;;;;;11.81;100.00;101233.41;680453;29;1083;-82
2022/05/17 01:10:51;;;;;;;10.88;8.90;;;;;;;11.81;100.00;101265.72;682053;28;1332;-82
2022/05/17 01:11:12;;;;;;;11.00;8.85;;;;;;;11.81;100.00;101244.78;680069;29;1488;-82
2022/05/17 01:11:33;;;;;;;10.98;8.60;;;;;;;11.85;100.00;101235.16;677333;29;1240;-83
2022/05/17 01:11:54;;;;;;;10.68;8.57;;;;;;;11.87;100.00;101234.28;677325;29;1224;-82
2022/05/17 01:12:14;;;;;;;10.98;8.45;;;;;;;11.85;100.00;101220.31;674343;29;1258;-82
2022/05/17 01:12:40;;;;;;;10.60;8.40;;;;;;;11.87;100.00;101243.91;677846;29;1605;-82
2022/05/17 01:15:06;;;;;;;10.45;9.07;;;;;;;11.91;100.00;101238.66;686902;28;980;-82
2022/05/17 01:15:26;;;;;;;10.73;9.15;;;;;;;11.89;100.00;101250.00;680270;29;1261;-82
2022/05/17 01:15:46;;;;;;;11.50;8.90;;;;;;;11.89;100.00;101236.91;684389;28;1970;-82
2022/05/17 01:16:07;;;;;;;11.02;9.40;;;;;;;11.89;100.00;101242.13;681603;28;4349;-82
2022/05/17 01:16:29;;;;;;;10.43;8.90;;;;;;;11.90;100.00;101225.56;682536;28;2239;-82
2022/05/17 01:16:50;;;;;;;11.20;8.70;;;;;;;11.91;100.00;101253.50;681011;28;1605;-82
2022/05/17 01:17:13;;;;;;;11.90;9.10;;;;;;;11.89;100.00;101269.22;678314;29;1637;-82
2022/05/17 01:17:42;;;;;;;10.43;8.82;;;;;;;11.88;100.00;101267.47;681441;28;1129;-82
2022/05/17 01:18:05;;;;;;;11.37;8.63;;;;;;;11.87;100.00;101257.00;681123;28;1183;-83
2022/05/17 01:18:32;;;;;;;10.68;8.25;;;;;;;11.83;100.00;101229.06;678905;29;1356;-82
2022/05/17 01:18:56;;;;;;;9.57;8.57;;;;;;;11.85;100.00;101251.75;682866;28;1355;-81
2022/05/17 01:19:19;;;;;;;10.23;8.75;;;;;;;11.85;100.00;101250.88;681182;28;4728;-82
2022/05/17 01:19:41;;;;;;;9.77;8.68;;;;;;;11.84;100.00;101247.38;681174;29;1422;-82
2022/05/17 01:20:08;;;;;;;9.75;8.52;;;;;;;11.87;100.00;101225.56;677230;29;1739;-82
2022/05/17 01:20:29;;;;;;;11.48;8.65;;;;;;;11.87;100.00;101252.63;674531;29;1617;-82
2022/05/17 01:20:56;;;;;;;11.55;8.98;;;;;;;11.85;100.00;101246.53;674455;29;1340;-82
2022/05/17 01:21:20;;;;;;;12.32;9.35;;;;;;;11.87;100.00;101229.03;677424;29;1594;-82
2022/05/17 01:21:42;;;;;;;11.43;9.40;;;;;;;11.87;100.00;101230.78;678489;29;1470;-81
2022/05/17 01:22:03;;;;;;;10.23;9.07;;;;;;;11.88;100.00;101250.84;678128;29;4332;-82
2022/05/17 01:22:23;;;;;;;11.10;9.02;;;;;;;11.85;100.00;101225.56;680793;28;1161;-82
2022/05/17 01:22:46;;;;;;;10.35;8.60;;;;;;;11.84;100.00;101265.72;681075;29;1285;-83
2022/05/17 01:23:07;;;;;;;12.13;9.15;;;;;;;11.86;100.00;101253.47;682197;29;1216;-82
2022/05/17 01:23:30;;;;;;;11.60;9.25;;;;;;;11.86;100.00;101240.38;679925;29;1582;-82
2022/05/17 01:23:51;;;;;;;11.43;9.35;;;;;;;11.85;100.00;101228.19;682141;28;1489;-82
2022/05/17 01:24:12;;;;;;;10.00;9.00;;;;;;;11.85;100.00;101237.78;679805;29;1826;-82
2022/05/17 01:24:33;;;;;;;10.50;9.40;;;;;;;11.86;100.00;101234.28;680176;29;1443;-82
2022/05/17 01:24:56;;;;;;;10.10;9.10;;;;;;;11.81;100.00;101242.16;677594;29;1250;-82
2022/05/17 01:25:17;;;;;;;10.43;9.35;;;;;;;11.76;100.00;101252.63;676018;29;4379;-82
2022/05/17 01:25:45;;;;;;;10.93;9.32;;;;;;;11.73;100.00;101260.47;675550;29;1135;-82
2022/05/17 01:26:11;;;;;;;10.55;9.40;;;;;;;11.79;100.00;101263.97;676747;29;1613;-82
2022/05/17 01:26:36;;;;;;;12.10;9.55;;;;;;;11.79;100.00;101257.00;678959;29;1503;-82
2022/05/17 01:27:30;;;;;;;11.38;9.23;;;;;;;11.79;100.00;101225.56;677956;29;1658;-81
2022/05/17 01:28:16;;;;;;;10.80;8.68;;;;;;;11.79;100.00;101228.19;678554;29;973;-82
2022/05/17 01:28:38;;;;;;;9.85;8.85;;;;;;;11.79;100.00;101262.22;668118;29;4997;-82
2022/05/17 01:28:58;;;;;;;10.30;9.00;;;;;;;11.79;100.00;101254.38;681787;28;2620;-82
2022/05/17 01:29:24;;;;;;;12.00;9.15;;;;;;;11.80;100.00;101253.50;680374;29;1449;-82
2022/05/17 01:29:47;;;;;;;10.43;8.90;;;;;;;11.79;100.00;101236.03;678646;29;1135;-82
2022/05/17 01:30:17;;;;;;;9.93;8.73;;;;;;;11.80;100.00;101258.75;676346;29;1126;-81
2022/05/17 01:30:37;;;;;;;11.75;9.10;;;;;;;11.80;100.00;101253.50;675800;29;1014;-82
2022/05/17 01:31:09;;;;;;;11.73;9.15;;;;;;;11.82;100.00;101267.47;675767;29;4399;-81
2022/05/17 01:31:33;;;;;;;12.52;8.90;;;;;;;11.86;100.00;101282.31;680726;28;1451;-82
2022/05/17 01:31:56;;;;;;;10.75;8.55;;;;;;;11.85;100.00;101264.84;680221;29;1072;-81
2022/05/17 01:32:17;;;;;;;12.23;8.90;;;;;;;11.83;100.00;101257.88;678413;29;1328;-82
2022/05/17 01:32:38;;;;;;;11.38;8.90;;;;;;;11.82;100.00;101246.50;678737;29;1188;-82
2022/05/17 01:32:58;;;;;;;10.35;8.63;;;;;;;11.79;100.00;101261.38;676545;29;1250;-81
2022/05/17 01:33:21;;;;;;;10.10;8.60;;;;;;;11.83;100.00;101235.16;675668;29;1202;-82
2022/05/17 01:33:41;;;;;;;9.70;8.63;;;;;;;11.83;100.00;101260.50;677515;29;1748;-82
2022/05/17 01:34:08;;;;;;;9.53;8.53;;;;;;;11.83;100.00;101245.63;671861;29;4411;-82
2022/05/17 01:34:29;;;;;;;9.73;8.43;;;;;;;11.79;100.00;101233.41;672852;29;1421;-82
2022/05/17 01:34:50;;;;;;;11.55;8.80;;;;;;;11.79;100.00;101233.41;672505;29;1059;-83
2022/05/17 01:35:10;;;;;;;11.15;8.95;;;;;;;11.77;100.00;101232.56;676083;29;1114;-82
2022/05/17 01:35:31;;;;;;;11.48;9.43;;;;;;;11.79;100.00;101240.41;675011;29;1269;-82
2022/05/17 01:35:52;;;;;;;11.13;9.37;;;;;;;11.78;100.00;101260.47;675988;29;1907;-82
2022/05/17 01:36:21;;;;;;;10.77;8.75;;;;;;;11.80;100.00;101284.06;679138;29;1277;-82
2022/05/17 01:36:42;;;;;;;9.57;8.48;;;;;;;11.79;100.00;101259.59;676947;29;1380;-81
2022/05/17 01:37:16;;;;;;;11.93;8.70;;;;;;;11.81;100.00;101238.66;678239;29;4297;-82
2022/05/17 01:37:37;;;;;;;9.80;8.48;;;;;;;11.80;100.00;101263.97;675394;29;1698;-82
2022/05/17 01:38:00;;;;;;;10.48;8.57;;;;;;;11.81;100.00;101268.34;675711;29;991;-82
2022/05/17 01:38:23;;;;;;;10.02;8.60;;;;;;;11.82;100.00;101266.59;673115;29;1495;-82
2022/05/17 01:38:55;;;;;;;9.95;8.50;;;;;;;11.83;100.00;101243.00;673125;29;1530;-82
2022/05/17 01:39:16;;;;;;;11.20;8.90;;;;;;;11.81;100.00;101273.59;672976;29;1364;-82
2022/05/17 01:39:49;;;;;;;11.18;8.82;;;;;;;11.79;100.00;101272.69;675751;29;1297;-82
2022/05/17 01:40:10;;;;;;;10.32;8.65;;;;;;;11.79;100.00;101270.09;675504;29;4476;-82
2022/05/17 01:40:31;;;;;;;10.40;8.63;;;;;;;11.78;100.00;101263.09;678886;29;1013;-81
2022/05/17 01:40:55;;;;;;;9.90;8.70;;;;;;;11.75;100.00;101244.75;678545;29;1130;-82
2022/05/17 01:41:20;;;;;;;9.65;8.57;;;;;;;11.70;100.00;101244.78;678125;29;1326;-82
2022/05/17 01:41:43;;;;;;;10.27;8.85;;;;;;;11.66;100.00;101265.72;679303;28;963;-83
2022/05/17 01:42:07;;;;;;;11.40;9.05;;;;;;;11.64;100.00;101263.09;679816;29;1391;-82
2022/05/17 01:42:31;;;;;;;12.27;9.23;;;;;;;11.62;100.00;101267.47;676848;29;1447;-82
2022/05/17 01:42:54;;;;;;;11.48;8.88;;;;;;;11.64;100.00;101267.47;677564;29;1210;-83
2022/05/17 01:43:15;;;;;;;10.95;8.60;;;;;;;11.63;100.00;101243.03;678807;28;4374;-82
2022/05/17 01:43:35;;;;;;;11.40;8.90;;;;;;;11.62;100.00;101254.38;679058;29;1396;-82
2022/05/17 01:43:57;;;;;;;11.57;9.20;;;;;;;11.60;100.00;101248.25;677523;29;1300;-82
2022/05/17 01:44:20;;;;;;;11.05;9.57;;;;;;;11.56;100.00;101249.13;677762;29;1295;-82
2022/05/17 01:44:45;;;;;;;10.93;9.32;;;;;;;11.55;100.00;101253.50;677481;29;1556;-82
2022/05/17 01:45:09;;;;;;;9.90;8.82;;;;;;;11.53;100.00;101275.31;678175;29;1214;-82
2022/05/17 01:45:30;;;;;;;11.77;9.05;;;;;;;11.54;100.00;101272.69;678847;29;1398;-82
2022/05/17 01:45:53;;;;;;;10.93;9.02;;;;;;;11.55;100.00;101245.63;678297;29;1868;-82
2022/05/17 01:46:14;;;;;;;11.07;8.90;;;;;;;11.58;100.00;101278.81;674312;29;4443;-82
2022/05/17 01:46:34;;;;;;;10.10;8.60;;;;;;;11.59;100.00;101250.00;680139;29;1520;-81
2022/05/17 01:46:55;;;;;;;10.47;8.60;;;;;;;11.62;100.00;101258.75;680100;29;1283;-82
2022/05/17 01:47:19;;;;;;;10.88;8.65;;;;;;;11.65;100.00;101248.28;680132;29;1316;-81
2022/05/17 01:47:39;;;;;;;10.82;8.40;;;;;;;11.64;100.00;101264.84;679867;29;837;-82
2022/05/17 01:48:00;;;;;;;9.90;8.50;;;;;;;11.69;100.00;101276.22;679674;29;1368;-82
2022/05/17 01:48:24;;;;;;;10.93;9.10;;;;;;;11.65;100.00;101264.84;677505;29;1699;-83
2022/05/17 01:48:47;;;;;;;10.38;9.18;;;;;;;11.64;100.00;101243.91;678569;29;1178;-82
2022/05/17 01:49:11;;;;;;;10.10;8.68;;;;;;;11.68;100.00;101246.50;679498;29;4320;-82
2022/05/17 01:49:37;;;;;;;10.82;9.15;;;;;;;11.65;100.00;101245.66;677400;29;1304;-82
2022/05/17 01:50:08;;;;;;;11.38;9.45;;;;;;;11.57;100.00;101235.16;677059;29;1472;-84
2022/05/17 01:50:28;;;;;;;11.55;9.88;;;;;;;11.52;100.00;101245.66;675757;29;2227;-82
2022/05/17 01:50:49;;;;;;;11.23;9.40;;;;;;;11.47;100.00;101239.53;677441;29;1301;-82
2022/05/17 01:51:10;;;;;;;11.13;9.30;;;;;;;11.45;100.00;101270.09;678888;29;1452;-82
2022/05/17 01:51:34;;;;;;;11.63;9.45;;;;;;;11.47;100.00;101281.41;674323;29;1366;-82
2022/05/17 01:52:00;;;;;;;12.07;9.20;;;;;;;11.43;100.00;101250.88;675672;29;988;-82
2022/05/17 01:52:22;;;;;;;11.52;9.63;;;;;;;11.46;100.00;101247.38;678314;29;4762;-82
2022/05/17 01:52:44;;;;;;;11.95;9.52;;;;;;;11.45;100.00;101283.16;681559;29;1654;-82
2022/05/17 01:53:05;;;;;;;11.27;9.25;;;;;;;11.44;100.00;101268.31;680627;29;1861;-82
2022/05/17 01:53:29;;;;;;;11.15;9.18;;;;;;;11.43;100.00;101263.94;680468;29;1297;-82
2022/05/17 01:53:49;;;;;;;10.63;9.07;;;;;;;11.44;100.00;101241.25;682815;29;1423;-82
2022/05/17 01:54:10;;;;;;;9.87;8.70;;;;;;;11.43;100.00;101263.94;682727;29;1313;-82
2022/05/17 01:54:31;;;;;;;11.45;8.85;;;;;;;11.44;100.00;101244.75;678748;29;1452;-82
2022/05/17 01:54:57;;;;;;;11.05;9.05;;;;;;;11.39;100.00;101246.50;678246;29;1022;-82